Time;durP1;ratioP1;P1;durP2;ratioP2;P2;SDS_P1;SDS_P2;PMS_P1;PMS_P2;Temp;Humidity;BMP_temperature;BMP_pressure;BME280_temperature;BME280_humidity;BME280_pressure;Samples;Min_cycle;Max_cycle;Signal;HPM_P1;HPM_P2
2022/10/28 00:02:51;;;;;;;;;;;;;;;19.78;53.81;96581.31;10535936;28;1143;-53
2022/10/28 00:07:52;;;;;;;;;;;;;;;19.79;53.88;96568.91;10535026;28;1599;-52
2022/10/28 00:12:52;;;;;;;;;;;;;;;19.79;53.52;96574.19;10539151;28;681;-50
2022/10/28 00:17:52;;;;;;;;;;;;;;;19.79;53.59;96566.28;10537389;28;1913;-49
2022/10/28 00:22:53;;;;;;;;;;;;;;;19.78;53.75;96564.72;10541717;28;1753;-50
2022/10/28 00:27:53;;;;;;;;;;;;;;;19.77;53.90;96561.28;10537087;28;1687;-51
2022/10/28 00:32:53;;;;;;;;;;;;;;;19.78;53.83;96562.88;10538990;28;1081;-49
2022/10/28 00:37:53;;;;;;;;;;;;;;;19.80;53.70;96565.25;10535208;28;1981;-48
2022/10/28 00:42:54;;;;;;;;;;;;;;;19.78;53.59;96556.81;10534593;28;972;-52
2022/10/28 00:47:57;;;;;;;;;;;;;;;19.78;53.70;96557.63;10535286;28;1686;-50
2022/10/28 00:52:59;;;;;;;;;;;;;;;19.77;53.49;96550.75;10514279;28;1619;-51
2022/10/28 00:57:59;;;;;;;;;;;;;;;19.78;53.67;96546.28;10533049;28;1942;-50
2022/10/28 01:03:00;;;;;;;;;;;;;;;19.76;53.57;96543.94;10534271;28;1135;-54
2022/10/28 01:08:00;;;;;;;;;;;;;;;19.78;53.67;96543.66;10530405;28;1663;-51
2022/10/28 01:13:07;;;;;;;;;;;;;;;19.78;53.65;96546.28;10515314;28;1912;-52
2022/10/28 01:18:10;;;;;;;;;;;;;;;19.76;53.64;96543.13;10534151;28;1914;-51
2022/10/28 01:23:10;;;;;;;;;;;;;;;19.76;53.53;96535.22;10529675;28;1659;-48
2022/10/28 01:28:29;;;;;;;;;;;;;;;19.77;53.38;96528.91;10530355;28;1488;-48
2022/10/28 01:33:40;;;;;;;;;;;;;;;19.76;53.53;96529.97;10528575;28;1086;-50
2022/10/28 01:38:55;;;;;;;;;;;;;;;19.75;53.61;96541.53;10534479;28;1974;-51
2022/10/28 01:44:00;;;;;;;;;;;;;;;19.76;53.64;96535.22;10541292;28;963;-53
2022/10/28 01:49:04;;;;;;;;;;;;;;;19.75;53.35;96538.88;10536153;28;1592;-52
2022/10/28 01:54:05;;;;;;;;;;;;;;;19.76;53.50;96543.13;10534386;28;1709;-51
2022/10/28 01:59:10;;;;;;;;;;;;;;;19.74;53.55;96545.22;10554027;28;1894;-50
2022/10/28 02:04:10;;;;;;;;;;;;;;;19.75;53.48;96538.88;10541071;28;1127;-53
2022/10/28 02:09:10;;;;;;;;;;;;;;;19.74;53.60;96532.06;10538989;28;1646;-49
2022/10/28 02:14:18;;;;;;;;;;;;;;;19.75;53.55;96538.88;10535040;28;1663;-53
2022/10/28 02:19:36;;;;;;;;;;;;;;;19.75;53.40;96531.00;10538574;28;1971;-51
2022/10/28 02:24:39;;;;;;;;;;;;;;;19.74;53.55;96534.69;10536172;28;1651;-51
2022/10/28 02:29:45;;;;;;;;;;;;;;;19.73;53.34;96538.34;10535656;28;1511;-53
2022/10/28 02:34:46;;;;;;;;;;;;;;;19.73;53.23;96543.59;10542750;28;1547;-50
2022/10/28 02:39:47;;;;;;;;;;;;;;;19.73;53.43;96527.81;10544352;28;1914;-51
2022/10/28 02:44:48;;;;;;;;;;;;;;;19.73;53.38;96536.50;10539383;28;1595;-51
2022/10/28 02:49:50;;;;;;;;;;;;;;;19.75;53.10;96520.47;10537743;28;1120;-49
2022/10/28 02:54:54;;;;;;;;;;;;;;;19.73;53.46;96522.56;10534643;28;1715;-51
2022/10/28 02:59:55;;;;;;;;;;;;;;;19.73;53.42;96512.03;10535906;28;1971;-48
2022/10/28 03:04:55;;;;;;;;;;;;;;;19.74;53.21;96516.28;10539555;28;986;-50
2022/10/28 03:09:56;;;;;;;;;;;;;;;19.73;53.21;96515.47;10536402;28;1627;-49
2022/10/28 03:14:56;;;;;;;;;;;;;;;19.74;53.39;96516.28;10536995;28;1607;-53
2022/10/28 03:19:56;;;;;;;;;;;;;;;19.73;53.33;96522.56;10537658;28;1909;-50
2022/10/28 03:24:56;;;;;;;;;;;;;;;19.74;53.37;96524.16;10534610;28;1643;-48
2022/10/28 03:29:57;;;;;;;;;;;;;;;19.74;53.33;96518.91;10536042;28;1543;-50
2022/10/28 03:34:58;;;;;;;;;;;;;;;19.72;53.42;96518.34;10536943;28;1132;-53
2022/10/28 03:40:01;;;;;;;;;;;;;;;19.72;53.07;96526.25;10536470;28;1910;-53
2022/10/28 03:45:01;;;;;;;;;;;;;;;19.74;53.09;96517.03;10536279;28;1678;-49
2022/10/28 03:50:01;;;;;;;;;;;;;;;19.76;53.10;96516.81;10519249;28;1129;-50
2022/10/28 03:55:02;;;;;;;;;;;;;;;19.74;53.09;96518.91;10531329;28;1579;-51
2022/10/28 04:00:03;;;;;;;;;;;;;;;19.73;53.09;96518.09;10539568;28;1910;-52
2022/10/28 04:05:03;;;;;;;;;;;;;;;19.74;53.07;96518.91;10533235;28;1545;-51
2022/10/28 04:10:03;;;;;;;;;;;;;;;19.73;53.21;96515.47;10534838;28;1180;-53
2022/10/28 04:15:04;;;;;;;;;;;;;;;19.74;53.02;96518.91;10531010;28;1556;-51
2022/10/28 04:20:05;;;;;;;;;;;;;;;19.72;53.16;96521.75;10534435;28;1906;-50
2022/10/28 04:25:05;;;;;;;;;;;;;;;19.72;53.17;96521.00;10538153;28;1706;-53
2022/10/28 04:30:06;;;;;;;;;;;;;;;19.72;53.17;96515.72;10529894;28;1557;-51
2022/10/28 04:35:07;;;;;;;;;;;;;;;19.72;53.05;96510.47;10537636;28;1200;-52
2022/10/28 04:40:07;;;;;;;;;;;;;;;19.73;53.02;96517.31;10535514;28;1910;-50
2022/10/28 04:45:10;;;;;;;;;;;;;;;19.72;52.93;96521.00;10533954;28;1639;-52
2022/10/28 04:50:11;;;;;;;;;;;;;;;19.73;53.08;96512.03;10535096;28;1128;-51
2022/10/28 04:55:11;;;;;;;;;;;;;;;19.72;52.87;96515.72;10526556;28;1690;-53
2022/10/28 05:00:12;;;;;;;;;;;;;;;19.71;52.94;96514.13;10533215;28;1951;-51
2022/10/28 05:05:13;;;;;;;;;;;;;;;19.72;52.93;96511.25;10534342;28;1014;-50
2022/10/28 05:10:16;;;;;;;;;;;;;;;19.72;53.09;96515.72;10531778;28;1575;-51
2022/10/28 05:15:17;;;;;;;;;;;;;;;19.69;52.76;96506.50;10538537;28;1075;-53
2022/10/28 05:20:18;;;;;;;;;;;;;;;19.70;53.11;96502.03;10541432;28;1910;-54
2022/10/28 05:25:18;;;;;;;;;;;;;;;19.71;53.10;96495.72;10539696;28;1560;-52
2022/10/28 05:30:18;;;;;;;;;;;;;;;19.69;52.88;96495.97;10542696;28;1493;-48
2022/10/28 05:35:18;;;;;;;;;;;;;;;19.69;53.14;96495.97;10544675;28;1137;-52
2022/10/28 05:40:19;;;;;;;;;;;;;;;19.68;53.14;96489.09;10542990;28;1906;-51
2022/10/28 05:45:19;;;;;;;;;;;;;;;19.69;53.03;96495.97;10540850;28;1087;-51
2022/10/28 05:50:19;;;;;;;;;;;;;;;19.68;52.90;96496.22;10537247;28;1627;-54
2022/10/28 05:55:20;;;;;;;;;;;;;;;19.68;53.18;96501.50;10537041;28;1666;-53
2022/10/28 06:00:21;;;;;;;;;;;;;;;19.68;52.89;96499.63;10540076;28;1925;-52
2022/10/28 06:05:21;;;;;;;;;;;;;;;19.69;53.12;96510.94;10540847;28;995;-52
2022/10/28 06:10:22;;;;;;;;;;;;;;;19.70;53.05;96515.19;10538371;28;1706;-51
2022/10/28 06:15:22;;;;;;;;;;;;;;;19.69;52.94;96527.53;10533442;28;1611;-52
2022/10/28 06:20:22;;;;;;;;;;;;;;;19.70;52.89;96538.84;10539344;28;1917;-51
2022/10/28 06:25:27;;;;;;;;;;;;;;;19.71;52.79;96535.16;10536140;28;1623;-49
2022/10/28 06:30:27;;;;;;;;;;;;;;;19.70;52.83;96533.59;10541746;28;1472;-50
2022/10/28 06:35:29;;;;;;;;;;;;;;;19.69;52.97;96532.00;10542097;28;1207;-55
2022/10/28 06:40:29;;;;;;;;;;;;;;;19.69;52.81;96529.38;10537339;28;1976;-51
2022/10/28 06:45:30;;;;;;;;;;;;;;;19.71;52.75;96528.09;10538642;28;1638;-50
2022/10/28 06:50:30;;;;;;;;;;;;;;;19.71;52.63;96522.81;10539563;28;1159;-47
2022/10/28 06:55:30;;;;;;;;;;;;;;;19.69;52.90;96526.75;10534245;28;1639;-52
2022/10/28 07:00:32;;;;;;;;;;;;;;;19.71;52.61;96540.44;10538078;28;1917;-56
2022/10/28 07:05:32;;;;;;;;;;;;;;;19.70;52.61;96544.13;10530142;28;1683;-51
2022/10/28 07:10:32;;;;;;;;;;;;;;;19.68;52.86;96548.84;10538747;28;1084;-53
2022/10/28 07:15:33;;;;;;;;;;;;;;;19.68;52.81;96554.88;10536541;28;1709;-50
2022/10/28 07:20:33;;;;;;;;;;;;;;;19.69;52.83;96558.31;10537719;28;1917;-52
2022/10/28 07:25:33;;;;;;;;;;;;;;;19.70;52.87;96567.78;10534230;28;1615;-50
2022/10/28 07:30:34;;;;;;;;;;;;;;;19.69;52.61;96574.09;10531095;28;1512;-53
2022/10/28 07:35:34;;;;;;;;;;;;;;;19.68;52.81;96578.53;10536504;28;1208;-50
2022/10/28 07:40:34;;;;;;;;;;;;;;;19.67;52.70;96574.34;10535389;28;1969;-53
2022/10/28 07:45:35;;;;;;;;;;;;;;;19.70;52.46;96580.94;10537128;28;956;-50
2022/10/28 07:50:35;;;;;;;;;;;;;;;19.70;52.81;96580.94;10532761;28;1642;-49
2022/10/28 07:55:35;;;;;;;;;;;;;;;19.68;52.89;96575.13;10535268;28;1694;-53
2022/10/28 08:00:36;;;;;;;;;;;;;;;19.68;52.88;96570.66;10535566;28;1957;-49
2022/10/28 08:05:36;;;;;;;;;;;;;;;19.70;52.89;96580.94;10535583;28;1631;-51
2022/10/28 08:10:36;;;;;;;;;;;;;;;19.72;52.83;96576.22;10535804;28;1168;-50
2022/10/28 08:15:37;;;;;;;;;;;;;;;19.72;52.56;96573.59;10533461;28;1699;-48
2022/10/28 08:20:37;;;;;;;;;;;;;;;19.74;52.56;96579.41;10536896;28;1971;-52
2022/10/28 08:25:37;;;;;;;;;;;;;;;19.74;52.69;96574.16;10537721;28;1659;-51
2022/10/28 08:30:38;;;;;;;;;;;;;;;19.74;52.63;96574.16;10535613;28;1461;-51
2022/10/28 08:35:39;;;;;;;;;;;;;;;19.73;52.49;96567.28;10541879;28;1192;-50
2022/10/28 08:40:46;;;;;;;;;;;;;;;19.72;52.68;96573.59;10542029;28;1917;-52
2022/10/28 08:45:49;;;;;;;;;;;;;;;19.72;52.67;96576.22;10532574;28;1619;-46
2022/10/28 08:50:51;;;;;;;;;;;;;;;19.72;52.64;96568.34;10535718;28;1168;-50
2022/10/28 08:55:51;;;;;;;;;;;;;;;19.70;52.65;96573.06;10517980;28;1663;-52
2022/10/28 09:00:52;;;;;;;;;;;;;;;19.69;52.80;96574.09;10542145;28;1968;-52
2022/10/28 09:05:59;;;;;;;;;;;;;;;19.69;52.71;96564.34;10525826;28;1118;-51
2022/10/28 09:11:02;;;;;;;;;;;;;;;19.69;52.87;96571.44;10539281;28;1950;-52
2022/10/28 09:16:10;;;;;;;;;;;;;;;19.69;52.75;96577.50;10536601;28;1714;-51
2022/10/28 09:21:30;;;;;;;;;;;;;;;19.71;52.76;96572.00;10574386;27;1910;-52
2022/10/28 09:26:40;;;;;;;;;;;;;;;19.71;52.79;96561.47;10522444;28;1698;-50
2022/10/28 09:31:41;;;;;;;;;;;;;;;19.70;52.63;96565.94;10535948;28;1101;-52
2022/10/28 09:36:46;;;;;;;;;;;;;;;19.72;52.71;96569.09;10539855;28;1563;-51
2022/10/28 09:41:47;;;;;;;;;;;;;;;19.72;52.68;96563.06;10541495;28;1910;-49
2022/10/28 09:46:49;;;;;;;;;;;;;;;19.74;52.58;96566.25;10540985;28;1552;-52
2022/10/28 09:52:09;;;;;;;;;;;;;;;19.73;52.49;96569.91;10542828;28;901;-53
2022/10/28 09:57:10;;;;;;;;;;;;;;;19.76;52.55;96564.16;10530280;28;1967;-49
2022/10/28 10:02:23;;;;;;;;;;;;;;;19.76;52.59;96570.22;10540303;28;1112;-50
2022/10/28 10:07:36;;;;;;;;;;;;;;;19.77;52.56;96563.09;10539843;28;1788;-48
2022/10/28 10:12:36;;;;;;;;;;;;;;;19.76;52.62;96558.91;10539507;28;1619;-52
2022/10/28 10:17:38;;;;;;;;;;;;;;;19.80;52.54;96554.75;10540567;28;1914;-52
2022/10/28 10:22:39;;;;;;;;;;;;;;;19.82;52.72;96547.38;10531283;28;1698;-53
2022/10/28 10:27:39;;;;;;;;;;;;;;;19.82;52.62;96555.28;10538928;28;1437;-53
2022/10/28 10:32:40;;;;;;;;;;;;;;;19.84;52.92;96558.44;10539883;28;1113;-50
2022/10/28 10:37:40;;;;;;;;;;;;;;;19.85;52.68;96562.66;10534239;28;1910;-53
2022/10/28 10:42:44;;;;;;;;;;;;;;;19.88;52.91;96552.44;10539866;28;1092;-51
2022/10/28 10:47:44;;;;;;;;;;;;;;;19.88;52.75;96551.66;10537177;28;1749;-51
2022/10/28 10:52:48;;;;;;;;;;;;;;;19.88;52.73;96543.75;10537828;28;1667;-48
2022/10/28 10:57:49;;;;;;;;;;;;;;;19.84;52.95;96538.22;10533375;28;1906;-50
2022/10/28 11:02:49;;;;;;;;;;;;;;;19.85;53.04;96539.78;10538164;28;1101;-51
2022/10/28 11:07:49;;;;;;;;;;;;;;;19.84;53.15;96534.78;10537686;28;1666;-53
2022/10/28 11:12:57;;;;;;;;;;;;;;;19.85;52.87;96531.09;10536632;28;1210;-52
2022/10/28 11:18:23;;;;;;;;;;;;;;;19.84;53.10;96514.53;10533476;28;1909;-52
2022/10/28 11:23:27;;;;;;;;;;;;;;;19.86;53.16;96516.91;10531042;28;1671;-52
2022/10/28 11:28:32;;;;;;;;;;;;;;;19.86;53.24;96514.28;10533188;28;1441;-53
2022/10/28 11:33:32;;;;;;;;;;;;;;;19.90;52.94;96508.25;10541684;28;1111;-50
2022/10/28 11:38:51;;;;;;;;;;;;;;;19.90;53.00;96497.75;10536243;28;1910;-49
2022/10/28 11:43:55;;;;;;;;;;;;;;;19.91;53.01;96498.50;10536426;28;1851;-48
2022/10/28 11:49:18;;;;;;;;;;;;;;;19.93;53.28;96501.69;10538241;28;1132;-51
2022/10/28 11:54:38;;;;;;;;;;;;;;;19.94;52.98;96492.75;10527272;28;1608;-50
2022/10/28 11:59:49;;;;;;;;;;;;;;;19.96;53.29;96485.41;10535278;28;1968;-53
2022/10/28 12:05:03;;;;;;;;;;;;;;;19.97;52.98;96482.50;10536415;28;813;-51
2022/10/28 12:10:13;;;;;;;;;;;;;;;19.99;53.17;96484.91;10526799;28;1718;-52
2022/10/28 12:15:33;;;;;;;;;;;;;;;20.03;53.30;96483.38;10532210;28;1678;-52
2022/10/28 12:20:35;;;;;;;;;;;;;;;20.04;52.99;96471.78;10529523;28;1910;-51
2022/10/28 12:25:37;;;;;;;;;;;;;;;20.05;53.25;96463.63;10528047;28;1702;-51
2022/10/28 12:30:37;;;;;;;;;;;;;;;20.08;53.06;96460.50;10528946;28;1472;-53
2022/10/28 12:35:44;;;;;;;;;;;;;;;20.12;52.87;96452.88;10531816;28;1488;-53
2022/10/28 12:40:50;;;;;;;;;;;;;;;20.20;52.87;96449.81;10534817;28;1906;-52
2022/10/28 12:45:51;;;;;;;;;;;;;;;20.29;52.89;96450.94;10530492;28;1572;-55
2022/10/28 12:50:52;;;;;;;;;;;;;;;20.44;52.41;96451.03;10533657;28;1124;-53
2022/10/28 12:55:59;;;;;;;;;;;;;;;20.56;52.29;96456.06;10525484;28;1651;-52
2022/10/28 13:01:00;;;;;;;;;;;;;;;20.61;52.10;96438.44;10531981;28;1905;-48
2022/10/28 13:06:07;;;;;;;;;;;;;;;20.59;52.17;96448.44;10533066;28;1667;-51
2022/10/28 13:11:07;;;;;;;;;;;;;;;20.67;52.38;96447.19;10535482;28;1160;-51
2022/10/28 13:16:33;;;;;;;;;;;;;;;21.13;51.44;96445.50;10531544;28;1654;-52
2022/10/28 13:21:42;;;;;;;;;;;;;;;21.34;50.58;96436.59;10534662;28;1905;-50
2022/10/28 13:26:43;;;;;;;;;;;;;;;21.34;50.08;96433.94;10527544;28;1604;-50
2022/10/28 13:31:43;;;;;;;;;;;;;;;21.43;50.16;96437.66;10530913;28;1136;-53
2022/10/28 13:36:58;;;;;;;;;;;;;;;21.57;49.59;96439.53;10519447;28;1508;-53
2022/10/28 13:42:18;;;;;;;;;;;;;;;21.46;50.12;96434.47;10541929;28;1897;-53
2022/10/28 13:47:22;;;;;;;;;;;;;;;21.31;50.53;96439.75;10538065;28;1702;-53
2022/10/28 13:52:23;;;;;;;;;;;;;;;21.12;50.97;96436.03;10540071;28;1772;-49
2022/10/28 13:57:36;;;;;;;;;;;;;;;20.95;51.12;96437.00;10539965;28;1971;-53
2022/10/28 14:02:37;;;;;;;;;;;;;;;20.83;51.82;96428.53;10539704;28;1176;-53
2022/10/28 14:07:40;;;;;;;;;;;;;;;20.79;51.78;96440.63;10535972;28;1607;-52
2022/10/28 14:12:42;;;;;;;;;;;;;;;20.68;52.16;96436.38;10522561;28;1496;-51
2022/10/28 14:18:08;;;;;;;;;;;;;;;20.60;52.74;96439.50;10538756;28;1909;-53
2022/10/28 14:23:20;;;;;;;;;;;;;;;20.53;52.65;96433.66;10522904;28;1652;-50
2022/10/28 14:28:26;;;;;;;;;;;;;;;20.49;52.60;96445.75;10525498;28;1615;-50
2022/10/28 14:33:27;;;;;;;;;;;;;;;20.46;52.98;96442.84;10539306;28;1444;-52
2022/10/28 14:38:50;;;;;;;;;;;;;;;20.42;52.79;96442.59;10532358;28;1977;-53
2022/10/28 14:44:03;;;;;;;;;;;;;;;20.37;52.96;96437.28;10519406;28;1704;-54
2022/10/28 14:49:03;;;;;;;;;;;;;;;20.36;53.12;96427.00;10534675;28;1615;-55
2022/10/28 14:54:06;;;;;;;;;;;;;;;20.31;53.25;96430.41;10531267;28;1599;-54
2022/10/28 14:59:16;;;;;;;;;;;;;;;20.28;53.11;96436.97;10546409;28;1899;-52
2022/10/28 15:04:20;;;;;;;;;;;;;;;20.29;53.31;96437.75;10536241;28;1069;-54
2022/10/28 15:09:22;;;;;;;;;;;;;;;20.27;53.38;96435.38;10530153;28;1579;-51
2022/10/28 15:14:27;;;;;;;;;;;;;;;20.25;53.16;96426.16;10537437;28;868;-53
2022/10/28 15:19:32;;;;;;;;;;;;;;;20.23;53.25;96438.78;10532500;28;1980;-49
2022/10/28 15:24:33;;;;;;;;;;;;;;;20.22;53.16;96439.81;10536609;28;1612;-51
2022/10/28 15:29:33;;;;;;;;;;;;;;;20.21;53.34;96440.88;10530246;28;1438;-51
2022/10/28 15:34:35;;;;;;;;;;;;;;;20.19;53.20;96437.69;10537089;28;1151;-49
2022/10/28 15:39:35;;;;;;;;;;;;;;;20.18;53.32;96433.44;10534882;28;1909;-50
2022/10/28 15:44:36;;;;;;;;;;;;;;;20.17;53.11;96437.91;10536289;28;1603;-51
2022/10/28 15:49:37;;;;;;;;;;;;;;;20.16;53.23;96438.16;10530957;28;1158;-51
2022/10/28 15:55:09;;;;;;;;;;;;;;;20.14;53.19;96430.53;10530495;28;1801;-51
2022/10/28 16:00:16;;;;;;;;;;;;;;;20.14;53.24;96430.53;10520021;28;1914;-48
2022/10/28 16:05:31;;;;;;;;;;;;;;;20.14;53.43;96437.63;10533902;28;1682;-52
2022/10/28 16:10:35;;;;;;;;;;;;;;;20.12;53.10;96429.19;10529788;28;1063;-51
2022/10/28 16:15:35;;;;;;;;;;;;;;;20.11;53.47;96422.34;10528725;28;1698;-50
2022/10/28 16:20:36;;;;;;;;;;;;;;;20.10;53.09;96426.81;10534281;28;1901;-50
2022/10/28 16:25:36;;;;;;;;;;;;;;;20.10;53.31;96434.72;10541726;28;1650;-52
2022/10/28 16:30:36;;;;;;;;;;;;;;;20.10;53.39;96439.19;10536280;28;1406;-49
2022/10/28 16:35:36;;;;;;;;;;;;;;;20.09;53.59;96437.63;10529030;28;1508;-51
2022/10/28 16:40:38;;;;;;;;;;;;;;;20.09;53.38;96434.97;10537070;28;1966;-53
2022/10/28 16:45:38;;;;;;;;;;;;;;;20.08;53.08;96442.06;10534505;28;1666;-51
2022/10/28 16:50:38;;;;;;;;;;;;;;;20.07;53.19;96429.19;10535292;28;1718;-50
2022/10/28 16:55:39;;;;;;;;;;;;;;;20.08;53.41;96436.00;10516693;28;1152;-49
2022/10/28 17:00:39;;;;;;;;;;;;;;;20.08;53.26;96438.66;10533279;28;1953;-50
2022/10/28 17:05:39;;;;;;;;;;;;;;;20.08;53.28;96438.66;10534050;28;1697;-50
2022/10/28 17:10:40;;;;;;;;;;;;;;;20.08;53.47;96436.00;10540673;28;1081;-50
2022/10/28 17:15:40;;;;;;;;;;;;;;;20.07;53.43;96445.75;10545053;28;1686;-47
2022/10/28 17:20:41;;;;;;;;;;;;;;;20.07;53.37;96444.97;10545003;28;1914;-50
2022/10/28 17:25:41;;;;;;;;;;;;;;;20.06;53.15;96456.53;10547327;28;1702;-47
2022/10/28 17:30:41;;;;;;;;;;;;;;;20.06;53.16;96453.91;10544077;28;1808;-50
2022/10/28 17:35:42;;;;;;;;;;;;;;;20.06;53.45;96456.53;10541560;28;1473;-49
2022/10/28 17:40:43;;;;;;;;;;;;;;;20.05;53.22;96457.59;10542399;28;1906;-50
2022/10/28 17:45:43;;;;;;;;;;;;;;;20.06;53.38;96453.91;10533449;28;1654;-50
2022/10/28 17:50:44;;;;;;;;;;;;;;;20.05;53.37;96457.59;10541893;28;1092;-52
2022/10/28 17:55:44;;;;;;;;;;;;;;;20.03;53.24;96447.28;10539281;28;1694;-52
2022/10/28 18:00:44;;;;;;;;;;;;;;;20.04;53.28;96445.47;10540030;28;1909;-51
2022/10/28 18:05:44;;;;;;;;;;;;;;;20.03;53.21;96443.91;10535415;28;1794;-49
2022/10/28 18:10:51;;;;;;;;;;;;;;;20.04;53.16;96453.34;10540714;28;1148;-53
2022/10/28 18:15:51;;;;;;;;;;;;;;;20.02;53.38;96445.72;10538157;28;1631;-48
2022/10/28 18:20:52;;;;;;;;;;;;;;;20.02;53.29;96451.00;10539663;28;1906;-51
2022/10/28 18:25:59;;;;;;;;;;;;;;;20.03;53.38;96449.94;10532130;28;1686;-48
2022/10/28 18:31:02;;;;;;;;;;;;;;;20.04;53.25;96456.00;10532514;28;1441;-52
2022/10/28 18:36:05;;;;;;;;;;;;;;;20.02;53.38;96458.88;10531048;28;1477;-51
2022/10/28 18:41:12;;;;;;;;;;;;;;;20.03;53.10;96457.06;10538931;28;1910;-52
2022/10/28 18:46:13;;;;;;;;;;;;;;;20.02;53.17;96465.97;10537289;28;1662;-51
2022/10/28 18:51:13;;;;;;;;;;;;;;;20.02;53.04;96460.72;10535876;28;1675;-49
2022/10/28 18:56:14;;;;;;;;;;;;;;;20.01;53.12;96459.91;10539411;28;1128;-48
2022/10/28 19:01:15;;;;;;;;;;;;;;;20.03;53.32;96457.06;10537939;28;1967;-52
2022/10/28 19:06:15;;;;;;;;;;;;;;;20.02;53.31;96463.34;10538165;28;1674;-48
2022/10/28 19:11:15;;;;;;;;;;;;;;;20.01;53.24;96472.31;10537357;28;1598;-51
2022/10/28 19:16:16;;;;;;;;;;;;;;;20.01;53.07;96464.41;10536867;28;1666;-52
2022/10/28 19:21:16;;;;;;;;;;;;;;;20.01;53.11;96477.56;10538142;28;1957;-49
2022/10/28 19:26:16;;;;;;;;;;;;;;;20.00;53.28;96479.41;10535790;28;1717;-49
2022/10/28 19:31:18;;;;;;;;;;;;;;;20.01;53.08;96498.63;10530569;28;1560;-52
2022/10/28 19:36:19;;;;;;;;;;;;;;;20.01;53.31;96482.81;10516526;28;1449;-48
2022/10/28 19:41:20;;;;;;;;;;;;;;;20.00;53.21;96486.50;10535434;28;1971;-50
2022/10/28 19:46:21;;;;;;;;;;;;;;;20.01;53.08;96488.09;10536023;28;1627;-49
2022/10/28 19:51:22;;;;;;;;;;;;;;;20.01;53.05;96493.34;10536209;28;1603;-52
2022/10/28 19:56:23;;;;;;;;;;;;;;;19.99;53.12;96480.44;10535878;28;1187;-51
2022/10/28 20:01:24;;;;;;;;;;;;;;;19.99;53.26;96467.28;10533970;28;1910;-48
2022/10/28 20:06:25;;;;;;;;;;;;;;;20.00;53.26;96482.03;10533335;28;1632;-51
2022/10/28 20:11:26;;;;;;;;;;;;;;;19.99;53.17;96479.66;10535848;28;1068;-51
2022/10/28 20:16:26;;;;;;;;;;;;;;;19.99;53.41;96479.66;10531080;28;1638;-52
2022/10/28 20:21:27;;;;;;;;;;;;;;;19.98;53.27;96478.06;10536388;28;1913;-52
2022/10/28 20:26:28;;;;;;;;;;;;;;;19.99;53.25;96477.78;10530454;28;1631;-50
2022/10/28 20:31:29;;;;;;;;;;;;;;;19.99;53.27;96484.91;10527364;28;1801;-50
2022/10/28 20:36:36;;;;;;;;;;;;;;;19.98;53.00;96478.84;10530496;28;1394;-54
2022/10/28 20:41:36;;;;;;;;;;;;;;;19.99;52.97;96487.56;10535507;28;1917;-52
2022/10/28 20:46:36;;;;;;;;;;;;;;;19.98;53.19;96494.66;10527076;28;1662;-52
2022/10/28 20:51:37;;;;;;;;;;;;;;;19.99;53.21;96492.81;10534412;28;1739;-53
2022/10/28 20:56:37;;;;;;;;;;;;;;;19.97;53.21;96487.78;10528666;28;1481;-50
2022/10/28 21:01:38;;;;;;;;;;;;;;;19.98;53.05;96491.22;10527252;28;1917;-52
2022/10/28 21:06:38;;;;;;;;;;;;;;;19.98;53.25;96486.75;10533306;28;1667;-53
2022/10/28 21:11:39;;;;;;;;;;;;;;;19.97;53.21;96485.16;10529569;28;1125;-50
2022/10/28 21:16:39;;;;;;;;;;;;;;;19.98;53.02;96480.69;10530863;28;1691;-53
2022/10/28 21:21:39;;;;;;;;;;;;;;;19.97;52.95;96473.84;10534459;28;1914;-53
2022/10/28 21:26:40;;;;;;;;;;;;;;;20.00;53.11;96483.84;10531978;28;1675;-52
2022/10/28 21:31:41;;;;;;;;;;;;;;;19.98;53.02;96475.41;10529196;28;1141;-50
2022/10/28 21:36:41;;;;;;;;;;;;;;;19.99;52.98;96483.06;10533044;28;1524;-52
2022/10/28 21:41:42;;;;;;;;;;;;;;;19.99;53.13;96484.91;10534018;28;1910;-51
2022/10/28 21:46:42;;;;;;;;;;;;;;;19.98;53.07;96483.31;10529095;28;1666;-54
2022/10/28 21:51:42;;;;;;;;;;;;;;;19.98;52.96;96485.94;10534421;28;911;-50
2022/10/28 21:56:42;;;;;;;;;;;;;;;19.97;53.01;96481.75;10529080;28;1588;-51
2022/10/28 22:01:43;;;;;;;;;;;;;;;19.97;52.92;96476.47;10540987;28;1972;-51
2022/10/28 22:06:43;;;;;;;;;;;;;;;19.98;53.17;96478.06;10542570;28;1651;-47
2022/10/28 22:11:44;;;;;;;;;;;;;;;19.95;53.19;96474.09;10541153;28;1131;-52
2022/10/28 22:16:45;;;;;;;;;;;;;;;19.96;52.94;96469.63;10531892;28;1667;-50
2022/10/28 22:21:45;;;;;;;;;;;;;;;19.97;52.97;96473.84;10541167;28;1906;-53
2022/10/28 22:26:47;;;;;;;;;;;;;;;19.98;52.89;96467.53;10531469;28;1666;-53
2022/10/28 22:31:47;;;;;;;;;;;;;;;19.96;53.07;96467.78;10537767;28;1163;-48
2022/10/28 22:36:47;;;;;;;;;;;;;;;19.96;53.15;96470.41;10533375;28;1465;-53
2022/10/28 22:41:48;;;;;;;;;;;;;;;19.96;53.01;96470.41;10543228;28;1909;-52
2022/10/28 22:46:48;;;;;;;;;;;;;;;19.97;52.93;96474.63;10541200;28;1631;-50
2022/10/28 22:51:48;;;;;;;;;;;;;;;19.96;52.94;96480.94;10540743;28;1136;-51
2022/10/28 22:56:49;;;;;;;;;;;;;;;19.96;52.99;96475.69;10537091;28;1595;-52
2022/10/28 23:01:50;;;;;;;;;;;;;;;19.96;52.89;96475.69;10538342;28;1898;-53
2022/10/28 23:07:01;;;;;;;;;;;;;;;19.96;53.13;96474.88;10530604;28;1635;-52
2022/10/28 23:12:01;;;;;;;;;;;;;;;19.97;53.14;96469.34;10537200;28;1174;-51
2022/10/28 23:17:02;;;;;;;;;;;;;;;19.97;52.88;96466.72;10536936;28;1544;-52
2022/10/28 23:22:02;;;;;;;;;;;;;;;19.96;53.04;96473.06;10537674;28;1973;-51
2022/10/28 23:27:03;;;;;;;;;;;;;;;19.96;53.07;96467.00;10526319;28;1658;-52
2022/10/28 23:32:03;;;;;;;;;;;;;;;19.96;52.78;96477.50;10535061;28;1062;-51
2022/10/28 23:37:03;;;;;;;;;;;;;;;19.96;52.93;96467.78;10535484;28;1603;-51
2022/10/28 23:42:04;;;;;;;;;;;;;;;19.96;53.05;96470.41;10536998;28;1967;-51
2022/10/28 23:47:04;;;;;;;;;;;;;;;19.96;52.83;96474.88;10534349;28;1651;-51
2022/10/28 23:52:04;;;;;;;;;;;;;;;19.95;52.83;96474.09;10538497;28;1088;-53
2022/10/28 23:57:04;;;;;;;;;;;;;;;19.96;52.99;96467.00;10533531;28;1623;-51
